Rapports des METAR proches

 

LFAQ - Bray, France
Distance from station: SSO 19km
Mise à jour: 25/07/2024 00:00
Clair
Clair
 Vent SSE
Vent: SSE 7 km/h
Température: 18°C
Point de rosée: 12°C
Humidité: 68%
Baromètre: 1018 hPa
Résumé: Clair
Visibility: greater than 10 km
2024/07/24 22:00 LFAQ 242200Z AUTO 15004KT CAVOK 18/12 Q1018
LFQQ - Lille/Lesquin, France
Distance from station: NNE 53km
Mise à jour: 25/07/2024 00:00
Clair
Clair
 Vent ESE
Vent: ESE 2 km/h
Température: 18°C
Point de rosée: 13°C
Humidité: 73%
Baromètre: 1018 hPa
Résumé: Clair
Visibility: greater than 10 km
2024/07/24 22:00 LFQQ 242200Z AUTO 12001KT CAVOK 18/13 Q1018 NOSIG
EBCV - Chievres Ab, Belgium
Distance from station: NE 88km
Mise à jour: 24/07/2024 23:55

 Vent SE
Vent: SE 6 km/h
Température: 17°C
Point de rosée: 13°C
Humidité: 77%
Baromètre: 1018 hPa
Visibility: 10 km
2024/07/24 21:55 EBCV 242155Z AUTO 13003KT 9999 /// 17/13 Q1018 BLU
 
LFOB - Beauvais/Tille(A, France
Distance from station: SSO 88km
Mise à jour: 25/07/2024 00:00
Clair
Clair
 Vent NNE
Vent: NNE 13 km/h
Température: 18°C
Point de rosée: 15°C
Humidité: 83%
Baromètre: 1019 hPa
Résumé: Clair
Visibility: greater than 10 km
2024/07/24 22:00 LFOB 242200Z AUTO 02007KT CAVOK 18/15 Q1019 NOSIG
LFAT - Le Touquet/P. Pl, France
Distance from station: ONO 93km
Mise à jour: 25/07/2024 00:00
Clair
Clair
 Vent varies
Vent: varies 6 km/h
Température: 17°C
Point de rosée: 14°C
Humidité: 83%
Baromètre: 1019 hPa
Résumé: Clair
Visibility: greater than 10 km
2024/07/24 22:00 LFAT 242200Z AUTO VRB03KT CAVOK 17/14 Q1019
EBFN - Koksijde (bel-Af, Belgium
Distance from station: N 105km
Mise à jour: 24/07/2024 23:55
Très nuageux
Très nuageux
 Vent varies
Vent: varies 2 km/h
Température: 18°C
Point de rosée: 15°C
Humidité: 83%
Baromètre: 1018 hPa
Clouds: Très nuageux
Visibility: 10 km
Cloud details: Partiellement nuageux 2896 m
Très nuageux 3353 m
2024/07/24 21:55 EBFN 242155Z AUTO VRB01KT 9999 SCT095/// BKN110/// 18/15 Q1018 BLU
 
EBOS - Oostende Airport, Belgium
Distance from station: N 119km
Mise à jour: 25/07/2024 00:20
Clair
Clair
 Vent varies
Vent: varies 2 km/h
Température: 18°C
Point de rosée: 15°C
Humidité: 83%
Baromètre: 1019 hPa
Résumé: Clair
Visibility: greater than 10 km
2024/07/24 22:20 EBOS 242220Z VRB01KT CAVOK 18/15 Q1019 NOSIG
EBCI - Charleroi/Gossel, Belgium
Distance from station: ENE 124km
Mise à jour: 25/07/2024 00:20
Clair
Clair
 Vent SSE
Vent: SSE 4 km/h
Température: 16°C
Point de rosée: 12°C
Humidité: 77%
Baromètre: 1019 hPa
Résumé: Clair
Visibility: greater than 10 km
2024/07/24 22:20 EBCI 242220Z 15002KT CAVOK 16/12 Q1019 NOSIG
LFPG - Charles De Gaull, France
Distance from station: S 125km
Mise à jour: 25/07/2024 00:00
Clair
Clair
 Vent SE
Vent: SE 9 km/h
Température: 22°C
Point de rosée: 12°C
Humidité: 53%
Baromètre: 1019 hPa
Résumé: Clair
Visibility: greater than 10 km
2024/07/24 22:00 LFPG 242200Z 14005KT CAVOK 22/12 Q1019 NOSIG
 
LFPT - Cormeilles Vexin, France
Distance from station: SSO 127km
Mise à jour: 25/07/2024 00:00
Clair
Clair
 Vent NE
Vent: NE 6 km/h
Température: 18°C
Point de rosée: 14°C
Humidité: 78%
Baromètre: 1018 hPa
Résumé: Clair
Visibility: greater than 10 km
2024/07/24 22:00 LFPT 242200Z AUTO 05003KT CAVOK 18/14 Q1018
LFPB - Paris/Le Bourget, France
Distance from station: S 132km
Mise à jour: 25/07/2024 00:00
Clair
Clair
 Vent E
Vent: E 6 km/h
Température: 20°C
Point de rosée: 13°C
Humidité: 64%
Baromètre: 1018 hPa
Résumé: Clair
Visibility: greater than 10 km
2024/07/24 22:00 LFPB 242200Z AUTO 10003KT CAVOK 20/13 Q1018 NOSIG
EBFS - Florennes (bel-A, Belgium
Distance from station: E 133km
Mise à jour: 24/07/2024 23:55
Très nuageux
Très nuageux
 Vent varies
Vent: varies 2 km/h
Température: 16°C
Point de rosée: 12°C
Humidité: 77%
Baromètre: 1019 hPa
Clouds: Très nuageux
Visibility: 10 km
Cloud details: Partiellement nuageux 4877 m
Très nuageux 6706 m
2024/07/24 21:55 EBFS 242155Z AUTO VRB01KT 9999 SCT160/// BKN220/// 16/12 Q1019 BLU
 
LFQA - Reims/Prunay, France
Distance from station: SE 143km
Mise à jour: 25/07/2024 00:00
Clair
Clair
 Vent calm
Vent: calme
Température: 14°C
Point de rosée: 13°C
Humidité: 94%
Baromètre: 1019 hPa
Résumé: Clair
Visibility: greater than 10 km
2024/07/24 22:00 LFQA 242200Z AUTO 00000KT CAVOK 14/13 Q1019
LFOP - Rouen/Boos (aut), France
Distance from station: SO 144km
Mise à jour: 25/07/2024 00:00
Clair
Clair
 Vent NNO
Vent: NNO 9 km/h
Température: 17°C
Point de rosée: 14°C
Humidité: 83%
Baromètre: 1019 hPa
Résumé: Clair
Visibility: greater than 10 km
2024/07/24 22:00 LFOP 242200Z AUTO 34005KT CAVOK 17/14 Q1019
EBBR - Brussels Nationa, Belgium
Distance from station: NE 148km
Mise à jour: 25/07/2024 00:20
Clair
Clair
 Vent SE
Vent: SE 4 km/h
Température: 15°C
Point de rosée: 12°C
Humidité: 82%
Baromètre: 1019 hPa
Résumé: Clair
Visibility: greater than 10 km
2024/07/24 22:20 EBBR 242220Z 13002KT CAVOK 15/12 Q1019 NOSIG
 
EBBE - Beauvechain (baf, Belgium
Distance from station: ENE 156km
Mise à jour: 24/07/2024 23:55
Clair
Clair
 Vent varies
Vent: varies 2 km/h
Température: 18°C
Point de rosée: 11°C
Humidité: 64%
Baromètre: 1019 hPa
Clouds: Clair
Visibility: 10 km
2024/07/24 21:55 EBBE 242155Z AUTO VRB01KT 9999 NCD 18/11 Q1019 BLU
EHFS - Vlissingen, Netherlands
Distance from station: NNE 157km
Mise à jour: 24/07/2024 23:55
Partiellement nuageux
Partiellement nuageux
 Vent E
Vent: E 15 km/h
Température: 19°C
Point de rosée: 14°C
Humidité: 73%
Baromètre: 1018 hPa
Clouds: Partiellement nuageux
Visibility: 10 km
2024/07/24 21:55 EHFS 242155Z AUTO 09008KT 9999 NSC 19/14 Q1018
LFPV - Villacoublay/Vel, France
Distance from station: SSO 157km
Mise à jour: 25/07/2024 00:00
Clair
Clair
 Vent SSE
Vent: SSE 4 km/h
Température: 20°C
Point de rosée: 12°C
Humidité: 60%
Baromètre: 1019 hPa
Résumé: Clair
Visibility: greater than 10 km
2024/07/24 22:00 LFPV 242200Z AUTO 16002KT CAVOK 20/12 Q1019 NOSIG
 
EGMD - Lydd Airport, United Kingdom
Distance from station: NO 160km
Mise à jour: 25/07/2024 00:20
Clair
Clair
 Vent SO
Vent: SO 19 km/h
Température: 17°C
Point de rosée: 15°C
Humidité: 88%
Baromètre: 1018 hPa
Clouds: Clair
Visibility: 10 km
2024/07/24 22:20 EGMD 242220Z AUTO 22010KT 9999 NCD 17/15 Q1018